^^
B2 Weather Station Historical Data
Daily Summary for June 20, 2019 Units:  English    Metric   Both
Daily Weekly Monthly Yearly Custom
  High: Low: Average:
Temperature: 69.2 °F 56.4 °F 61.7 °F
Dew Point: 64.8 °F 55 °F 59.5 °F
Humidity: 95% 83% 92%
Wind Speed: 16.1mph 0mph 6.4mph
Wind Gust: 10.1mph - -
Wind- - NW
Pressure: 29.91 in 29.53 in -
Precipitation: 0.4 in    
Historical Graphs
 
 
Tabular Data for June 20, 2019
Time Temperature Dew Point Pressure Wind Wind Speed Wind Gust Humidity Rainfall Rate (Hourly) solar
00:04 58.5 °F 57.1 °F 29.60 in North 9.2 mph 7.5 mph 95% 0.22 in 0.00 W/m2
00:09 58.3 °F 56.9 °F 29.60 in North 9.2 mph 4.4 mph 95% 0.26 in 0.00 W/m2
00:14 58.1 °F 56.7 °F 29.60 in NNW 8.1 mph 2.7 mph 95% 0.29 in 0.00 W/m2
00:19 57.8 °F 56.4 °F 29.60 in NNW 10.4 mph 5.4 mph 95% 0.29 in 0.00 W/m2
00:24 57.7 °F 56.3 °F 29.60 in NNW 8.1 mph 6.8 mph 95% 0.29 in 0.00 W/m2
00:29 57.6 °F 56.2 °F 29.59 in NNW 8.1 mph 7.2 mph 95% 0.31 in 0.00 W/m2
00:34 57.4 °F 56 °F 29.59 in North 10.4 mph 8.5 mph 95% 0.32 in 0.00 W/m2
00:39 57.2 °F 55.8 °F 29.58 in NNE 11.5 mph 7.9 mph 95% 0.32 in 0.00 W/m2
00:44 57.1 °F 55.7 °F 29.58 in North 8.1 mph 6.6 mph 95% 0.32 in 0.00 W/m2
00:49 57.1 °F 55.7 °F 29.58 in North 13.8 mph 7.8 mph 95% 0.31 in 0.00 W/m2
00:54 57 °F 55.6 °F 29.58 in NNW 10.4 mph 7.7 mph 95% 0.29 in 0.00 W/m2
00:59 56.9 °F 55.5 °F 29.58 in North 9.2 mph 5.9 mph 95% 0.26 in 0.00 W/m2
01:04 57 °F 55.6 °F 29.57 in North 6.9 mph 3.2 mph 95% 0.22 in 0.00 W/m2
01:09 57.1 °F 55.7 °F 29.57 in NNW 8.1 mph 5.3 mph 95% 0.18 in 0.00 W/m2
01:14 57 °F 55.6 °F 29.57 in NNW 8.1 mph 5.9 mph 95% 0.14 in 0.00 W/m2
01:19 57 °F 55.6 °F 29.57 in NNE 5.8 mph 2.6 mph 95% 0.11 in 0.00 W/m2
01:24 57.1 °F 55.7 °F 29.57 in North 5.8 mph 3.9 mph 95% 0.09 in 0.00 W/m2
01:29 57.2 °F 55.8 °F 29.56 in North 9.2 mph 5.9 mph 95% 0.06 in 0.00 W/m2
01:34 57.2 °F 55.8 °F 29.55 in North 8.1 mph 4.8 mph 95% 0.04 in 0.00 W/m2
01:39 57.1 °F 55.7 °F 29.55 in NW 5.8 mph 4.4 mph 95% 0.03 in 0.00 W/m2
01:44 57 °F 55.6 °F 29.56 in NW 5 mph 1.5 mph 95% 0.02 in 0.00 W/m2
01:49 57 °F 55.6 °F 29.55 in NNW 6 mph 3.2 mph 95% 0.02 in 0.00 W/m2
01:54 57 °F 55.6 °F 29.55 in NNW 8.1 mph 5.7 mph 95% 0.02 in 0.00 W/m2
01:59 56.9 °F 55.5 °F 29.55 in NNW 6.9 mph 4.1 mph 95% 0.01 in 0.00 W/m2
02:04 56.7 °F 55.3 °F 29.55 in NNW 10.4 mph 7.6 mph 95% 0.01 in 0.00 W/m2
02:09 56.7 °F 55.3 °F 29.54 in NNW 8.1 mph 5.2 mph 95% 0.01 in 0.00 W/m2
02:14 56.6 °F 55.2 °F 29.54 in NNW 8.1 mph 5.7 mph 95% 0.01 in 0.00 W/m2
02:19 56.5 °F 55.1 °F 29.54 in North 6 mph 3.6 mph 95% 0.01 in 0.00 W/m2
02:24 56.4 °F 55 °F 29.54 in North 4 mph 4 mph 95% 0 in 0.00 W/m2
02:29 56.4 °F 55 °F 29.54 in NNW 8.1 mph 5 mph 95% 0 in 0.00 W/m2
02:34 56.4 °F 55 °F 29.54 in North 4.6 mph 3.4 mph 95% 0 in 0.00 W/m2
02:39 56.4 °F 55 °F 29.55 in NNW 5.8 mph 3.6 mph 95% 0 in 0.00 W/m2
02:44 56.4 °F 55 °F 29.55 in NNW 5 mph 3.3 mph 95% 0 in 0.00 W/m2
02:49 56.4 °F 55 °F 29.55 in North 4.6 mph 1.7 mph 95% 0 in 0.00 W/m2
02:54 56.4 °F 55 °F 29.55 in NW 3.5 mph 1.9 mph 95% 0 in 0.00 W/m2
02:59 56.4 °F 55 °F 29.55 in NW 2.3 mph 1.6 mph 95% 0 in 0.00 W/m2
03:04 56.4 °F 55 °F 29.55 in NNW 5.8 mph 2.8 mph 95% 0 in 0.00 W/m2
03:09 56.5 °F 55.1 °F 29.54 in NNW 6.9 mph 3.7 mph 95% 0 in 0.00 W/m2
03:14 56.6 °F 55.2 °F 29.54 in NNW 5.8 mph 4.3 mph 95% 0 in 0.00 W/m2
03:19 56.7 °F 55.3 °F 29.54 in NNW 5.8 mph 4.1 mph 95% 0 in 0.00 W/m2
03:24 56.7 °F 55.3 °F 29.54 in NNW 6 mph 3.7 mph 95% 0 in 0.00 W/m2
03:29 56.8 °F 55.4 °F 29.54 in NNW 5.8 mph 4.4 mph 95% 0 in 0.00 W/m2
03:34 56.8 °F 55.4 °F 29.54 in NNW 7 mph 4.5 mph 95% 0 in 0.00 W/m2
03:39 56.9 °F 55.5 °F 29.54 in NNW 3.5 mph 2.9 mph 95% 0 in 0.00 W/m2
03:44 56.9 °F 55.5 °F 29.54 in NNW 4.6 mph 3.9 mph 95% 0 in 0.00 W/m2
03:49 57 °F 55.6 °F 29.54 in NNW 5.8 mph 3.6 mph 95% 0 in 0.00 W/m2
03:55 57.1 °F 55.7 °F 29.54 in NNW 5.8 mph 4.5 mph 95% 0 in 0.00 W/m2
03:59 57.1 °F 55.7 °F 29.53 in North 6 mph 4.9 mph 95% 0 in 0.00 W/m2
04:04 57.2 °F 55.8 °F 29.53 in North 6.9 mph 4.8 mph 95% 0 in 0.00 W/m2
04:09 57.2 °F 55.8 °F 29.53 in NNW 9.2 mph 7 mph 95% 0 in 0.00 W/m2
04:14 57.3 °F 55.9 °F 29.53 in North 5.8 mph 5.4 mph 95% 0 in 0.00 W/m2
04:19 57.3 °F 55.9 °F 29.53 in NNW 9.2 mph 6.2 mph 95% 0 in 0.00 W/m2
04:24 57.3 °F 55.9 °F 29.53 in NW 6.9 mph 2.7 mph 95% 0 in 0.00 W/m2
04:29 57.4 °F 56 °F 29.53 in NNW 3.5 mph 3.2 mph 95% 0 in 0.00 W/m2
04:35 57.4 °F 56 °F 29.53 in NNW 8.1 mph 3.9 mph 95% 0 in 0.00 W/m2
04:39 57.5 °F 56.1 °F 29.53 in NNW 6.9 mph 4.8 mph 95% 0 in 0.00 W/m2
04:44 57.5 °F 56.1 °F 29.53 in NNW 6 mph 4.4 mph 95% 0 in 0.00 W/m2
04:49 57.6 °F 56.2 °F 29.54 in NNW 7 mph 4.5 mph 95% 0 in 0.00 W/m2
04:54 57.7 °F 56.3 °F 29.54 in NW 5.8 mph 2.5 mph 95% 0 in 0.00 W/m2
04:59 57.7 °F 56.3 °F 29.54 in NW 3.5 mph 1.4 mph 95% 0 in 0.00 W/m2
05:04 57.8 °F 56.4 °F 29.54 in NW 5 mph 2.8 mph 95% 0 in 0.00 W/m2
05:09 57.9 °F 56.5 °F 29.54 in WNW 5.8 mph 5.2 mph 95% 0 in 0.00 W/m2
05:14 58 °F 56.6 °F 29.54 in WNW 6.9 mph 3.9 mph 95% 0 in 0.00 W/m2
05:19 58.2 °F 56.8 °F 29.55 in NW 8.1 mph 2.1 mph 95% 0.01 in 0.00 W/m2
05:24 58.3 °F 56.9 °F 29.55 in NNW 4.6 mph 2.8 mph 95% 0.01 in 0.00 W/m2
05:29 58.4 °F 57 °F 29.55 in NW 6.9 mph 2.5 mph 95% 0.01 in 0.00 W/m2
05:34 58.5 °F 57.1 °F 29.56 in NW 4.6 mph 2.3 mph 95% 0.01 in 0.00 W/m2
05:39 58.6 °F 57.2 °F 29.55 in NW 3.5 mph 2.9 mph 95% 0.01 in 0.00 W/m2
05:44 58.6 °F 57.2 °F 29.56 in NW 6.9 mph 4 mph 95% 0.01 in 0.00 W/m2
05:50 58.6 °F 57.2 °F 29.56 in NW 8.1 mph 4.1 mph 95% 0.02 in 0.00 W/m2
05:54 58.7 °F 57.3 °F 29.56 in North 9.2 mph 7.4 mph 95% 0.03 in 0.00 W/m2
05:59 58.7 °F 57.3 °F 29.56 in WNW 10.4 mph 8.4 mph 95% 0.03 in 0.00 W/m2
06:04 58.8 °F 57.4 °F 29.57 in WNW 11.5 mph 6.9 mph 95% 0.04 in 0.00 W/m2
06:09 58.9 °F 57.5 °F 29.57 in West 10.4 mph 4.7 mph 95% 0.04 in 0.00 W/m2
06:14 58.9 °F 57.5 °F 29.57 in WNW 10.4 mph 6.8 mph 95% 0.04 in 0.00 W/m2
06:20 58.9 °F 57.5 °F 29.57 in NW 8.1 mph 5.5 mph 95% 0.04 in 0.00 W/m2
06:24 59 °F 57.6 °F 29.58 in WNW 9.2 mph 4.4 mph 95% 0.05 in 0.00 W/m2
06:29 59 °F 57.6 °F 29.58 in NW 11.5 mph 6 mph 95% 0.05 in 5.00 W/m2
06:34 59 °F 57.6 °F 29.58 in NNW 11.5 mph 6.9 mph 95% 0.06 in 9.00 W/m2
06:39 59.1 °F 57.7 °F 29.58 in NNW 15 mph 7 mph 95% 0.07 in 12.00 W/m2
06:44 59.2 °F 57.8 °F 29.59 in WNW 8.1 mph 5 mph 95% 0.08 in 11.00 W/m2
06:49 59.3 °F 57.9 °F 29.59 in NW 9.2 mph 5.5 mph 95% 0.07 in 14.00 W/m2
06:54 59.4 °F 58 °F 29.59 in NW 9.2 mph 6.4 mph 95% 0.07 in 18.00 W/m2
06:59 59.5 °F 58.1 °F 29.59 in NW 9.2 mph 4.7 mph 95% 0.07 in 19.00 W/m2
07:04 59.4 °F 58 °F 29.60 in NW 9.2 mph 7.6 mph 95% 0.07 in 16.00 W/m2
07:09 59.4 °F 58 °F 29.60 in WNW 11.5 mph 6 mph 95% 0.08 in 16.00 W/m2
07:15 59.3 °F 57.9 °F 29.60 in NW 15 mph 9.4 mph 95% 0.07 in 16.00 W/m2
07:20 59.3 °F 57.9 °F 29.59 in NNW 15 mph 8.7 mph 95% 0.07 in 18.00 W/m2
07:24 59.3 °F 57.9 °F 29.59 in NW 11.5 mph 7.9 mph 95% 0.06 in 30.00 W/m2
07:29 59.3 °F 57.9 °F 29.60 in NNW 11.5 mph 6.6 mph 95% 0.07 in 46.00 W/m2
07:34 59.5 °F 58.1 °F 29.60 in NW 11.5 mph 7.1 mph 95% 0.06 in 62.00 W/m2
07:39 59.6 °F 58.2 °F 29.60 in NW 11.5 mph 5.9 mph 95% 0.05 in 72.00 W/m2
07:44 59.8 °F 58.4 °F 29.60 in NNW 10.4 mph 6.8 mph 95% 0.04 in 88.00 W/m2
07:49 60 °F 58.6 °F 29.60 in NNW 10.4 mph 7 mph 95% 0.04 in 81.00 W/m2
07:54 60 °F 58.6 °F 29.60 in NW 12 mph 7.9 mph 95% 0.03 in 79.00 W/m2
07:59 60.2 °F 58.8 °F 29.60 in NW 9.2 mph 6.2 mph 95% 0.03 in 128.00 W/m2
08:04 60.5 °F 59.1 °F 29.60 in NW 12.7 mph 6.7 mph 95% 0.02 in 163.00 W/m2
08:09 60.7 °F 59.3 °F 29.60 in NW 11.5 mph 9.6 mph 95% 0.01 in 169.00 W/m2
08:14 60.9 °F 59.5 °F 29.61 in NW 11.5 mph 7.7 mph 95% 0.01 in 116.00 W/m2
08:20 61.1 °F 59.7 °F 29.61 in NW 12.7 mph 9.3 mph 95% 0.01 in 116.00 W/m2
08:24 61.2 °F 59.8 °F 29.61 in NNW 11.5 mph 7.3 mph 95% 0.01 in 93.00 W/m2
08:29 61.3 °F 59.9 °F 29.62 in NW 11.5 mph 7.3 mph 95% 0 in 146.00 W/m2
08:35 61.4 °F 60 °F 29.62 in NW 10.4 mph 6.7 mph 95% 0 in 77.00 W/m2
08:39 61.5 °F 60.1 °F 29.62 in NNW 11.5 mph 7 mph 95% 0 in 83.00 W/m2
08:44 61.4 °F 60 °F 29.62 in NNW 13.8 mph 7.7 mph 95% 0 in 91.00 W/m2
08:49 61.5 °F 60.1 °F 29.62 in WNW 9.2 mph 6.1 mph 95% 0 in 84.00 W/m2
08:54 61.5 °F 60.1 °F 29.62 in NW 11.5 mph 6.9 mph 95% 0 in 156.00 W/m2
08:59 61.7 °F 60.3 °F 29.62 in NNW 11.5 mph 8.7 mph 95% 0 in 211.00 W/m2
09:05 62 °F 60.6 °F 29.62 in NNW 12.7 mph 7.4 mph 95% 0 in 211.00 W/m2
09:09 62.4 °F 60.9 °F 29.62 in NNW 11.5 mph 4.7 mph 95% 0 in 283.00 W/m2
09:14 62.7 °F 61.2 °F 29.62 in NNW 12.7 mph 8.5 mph 95% 0 in 209.00 W/m2
09:19 62.5 °F 61 °F 29.62 in NNW 11.5 mph 7.2 mph 95% 0 in 135.00 W/m2
09:24 62.2 °F 60.8 °F 29.62 in NNW 16.1 mph 9.6 mph 95% 0 in 123.00 W/m2
09:29 62.1 °F 60.7 °F 29.62 in NNW 12.7 mph 8.6 mph 95% 0 in 188.00 W/m2
09:34 62.3 °F 60.8 °F 29.62 in North 13.8 mph 10 mph 95% 0 in 167.00 W/m2
09:39 62.2 °F 60.8 °F 29.62 in North 12.7 mph 7.8 mph 95% 0 in 207.00 W/m2
09:45 62.3 °F 60.8 °F 29.62 in NNW 12 mph 8.9 mph 95% 0 in 225.00 W/m2
09:49 62.5 °F 60.7 °F 29.63 in NNW 12 mph 10.1 mph 94% 0 in 199.00 W/m2
09:54 62.6 °F 60.8 °F 29.63 in NNW 12.7 mph 7.8 mph 94% 0 in 149.00 W/m2
09:59 62.7 °F 60.9 °F 29.63 in NW 11.5 mph 7.4 mph 94% 0 in 179.00 W/m2
10:04 62.8 °F 61 °F 29.64 in NNW 11 mph 6.7 mph 94% 0 in 200.00 W/m2
10:09 62.6 °F 60.8 °F 29.64 in NNW 10.4 mph 9.9 mph 94% 0 in 179.00 W/m2
10:14 62.5 °F 60.7 °F 29.64 in NNW 11.5 mph 9.2 mph 94% 0 in 216.00 W/m2
10:19 62.7 °F 60.9 °F 29.65 in NW 10.4 mph 5.8 mph 94% 0 in 167.00 W/m2
10:24 62.7 °F 60.9 °F 29.65 in NW 15 mph 8.3 mph 94% 0 in 211.00 W/m2
10:29 62.9 °F 61.1 °F 29.65 in North 12.7 mph 7.9 mph 94% 0 in 253.00 W/m2
10:34 63.2 °F 61.4 °F 29.66 in NNW 12.7 mph 5.9 mph 94% 0 in 253.00 W/m2
10:39 63.3 °F 61.5 °F 29.66 in NW 10.4 mph 6.4 mph 94% 0 in 301.00 W/m2
10:45 63.6 °F 61.5 °F 29.66 in NNW 12.7 mph 9 mph 93% 0 in 301.00 W/m2
10:49 63.6 °F 61.5 °F 29.66 in NNW 8.1 mph 5.3 mph 93% 0 in 230.00 W/m2
10:54 63.6 °F 61.5 °F 29.67 in NNW 10.4 mph 6.1 mph 93% 0 in 299.00 W/m2
10:59 63.7 °F 61.6 °F 29.67 in NW 15 mph 6.1 mph 93% 0 in 360.00 W/m2
11:04 64.1 °F 62 °F 29.67 in NW 10.4 mph 7.9 mph 93% 0 in 666.00 W/m2
11:09 64.6 °F 62.5 °F 29.68 in NW 11.5 mph 7 mph 93% 0 in 297.00 W/m2
11:15 64.4 °F 62 °F 29.68 in WNW 11.5 mph 5.9 mph 92% 0 in 227.00 W/m2
11:19 64.1 °F 61.7 °F 29.68 in NNW 11.5 mph 6.5 mph 92% 0 in 237.00 W/m2
11:24 64.1 °F 61.7 °F 29.68 in WNW 11.5 mph 6.4 mph 92% 0 in 283.00 W/m2
11:29 64.2 °F 61.8 °F 29.68 in NNW 10.4 mph 6.3 mph 92% 0 in 330.00 W/m2
11:34 64.5 °F 62.1 °F 29.68 in NW 9.2 mph 4.8 mph 92% 0 in 190.00 W/m2
11:39 64.4 °F 62 °F 29.69 in NNW 9.2 mph 4.3 mph 92% 0 in 255.00 W/m2
11:44 64.5 °F 62.1 °F 29.70 in NW 9.2 mph 5.9 mph 92% 0 in 295.00 W/m2
11:49 64.4 °F 61.7 °F 29.69 in NW 10.4 mph 6.4 mph 91% 0 in 230.00 W/m2
11:54 64.3 °F 61.9 °F 29.69 in NNW 10.4 mph 4.9 mph 92% 0 in 199.00 W/m2
11:59 64.2 °F 61.5 °F 29.69 in North 8.1 mph 7.5 mph 91% 0 in 294.00 W/m2
12:04 64.3 °F 61.9 °F 29.70 in North 10.4 mph 6.2 mph 92% 0 in 188.00 W/m2
12:09 64.2 °F 61.8 °F 29.70 in NNW 11.5 mph 6.4 mph 92% 0 in 394.00 W/m2
12:14 64.6 °F 62.5 °F 29.70 in NNW 11.5 mph 7.6 mph 93% 0 in 469.00 W/m2
12:19 65 °F 62.6 °F 29.70 in NNW 9 mph 5.9 mph 92% 0 in 520.00 W/m2
12:24 65.2 °F 62.5 °F 29.70 in WNW 8.1 mph 6.8 mph 91% 0 in 503.00 W/m2
12:29 65.3 °F 62.3 °F 29.71 in NW 10.4 mph 6.8 mph 90% 0 in 392.00 W/m2
12:31 65.4 °F 62.4 °F 29.71 in NNW 9.2 mph 7.3 mph 90% 0 in 320.00 W/m2
12:33 65.2 °F 62.2 °F 29.71 in NNW 11.5 mph 7.9 mph 90% 0 in 265.00 W/m2
12:37 65.1 °F 62.1 °F 29.71 in NW 9.2 mph 5.7 mph 90% 0 in 338.00 W/m2
12:46 65 °F 62.3 °F 29.72 in NW 10.4 mph 7 mph 91% 0 in 241.00 W/m2
12:53 64.8 °F 62.1 °F 29.72 in NW 10.4 mph 7.2 mph 91% 0 in 306.00 W/m2
12:58 64.6 °F 61.9 °F 29.72 in WNW 8.1 mph 5.1 mph 91% 0 in 422.00 W/m2
13:04 64.8 °F 62.1 °F 29.72 in NW 9.2 mph 6 mph 91% 0 in 276.00 W/m2
13:09 64.6 °F 61.9 °F 29.73 in NNW 9.2 mph 8.1 mph 91% 0 in 195.00 W/m2
13:14 64.7 °F 62.3 °F 29.73 in NW 6.9 mph 5.8 mph 92% 0 in 248.00 W/m2
13:19 64.5 °F 61.8 °F 29.73 in NW 10.4 mph 6.2 mph 91% 0 in 253.00 W/m2
13:24 64.3 °F 61.6 °F 29.73 in NNW 9.2 mph 8.2 mph 91% 0 in 202.00 W/m2
13:29 64.3 °F 61.9 °F 29.73 in NNW 13 mph 8 mph 92% 0 in 392.00 W/m2
13:34 64.5 °F 62.1 °F 29.73 in NW 10.4 mph 5.8 mph 92% 0 in 253.00 W/m2
13:39 64.3 °F 61.6 °F 29.74 in NNW 12.7 mph 6.2 mph 91% 0 in 248.00 W/m2
13:44 64.3 °F 61.9 °F 29.74 in NNW 10.4 mph 6.8 mph 92% 0 in 258.00 W/m2
13:49 64.5 °F 61.8 °F 29.74 in NW 9 mph 5.8 mph 91% 0 in 436.00 W/m2
13:54 65 °F 62.3 °F 29.74 in NNW 12 mph 7.2 mph 91% 0 in 234.00 W/m2
13:59 64.7 °F 61.7 °F 29.74 in North 13.8 mph 9 mph 90% 0 in 357.00 W/m2
14:04 64.7 °F 62 °F 29.74 in NNW 10 mph 6 mph 91% 0 in 260.00 W/m2
14:09 64.6 °F 61.9 °F 29.74 in NW 4.6 mph 3.2 mph 91% 0 in 269.00 W/m2
14:14 64.7 °F 62 °F 29.74 in North 10.4 mph 5.7 mph 91% 0 in 253.00 W/m2
14:19 64.6 °F 61.9 °F 29.74 in NNW 9.2 mph 6.7 mph 91% 0 in 258.00 W/m2
14:24 64.7 °F 62 °F 29.75 in NW 6 mph 4.5 mph 91% 0 in 283.00 W/m2
14:29 64.7 °F 62 °F 29.75 in NW 6.9 mph 4.9 mph 91% 0 in 113.00 W/m2
14:34 64.4 °F 61.4 °F 29.75 in NNW 9.2 mph 6.8 mph 90% 0 in 149.00 W/m2
14:39 64.2 °F 61.5 °F 29.75 in North 11.5 mph 6.2 mph 91% 0 in 104.00 W/m2
14:44 64.1 °F 61.4 °F 29.75 in North 9.2 mph 8.2 mph 91% 0 in 116.00 W/m2
14:49 64.1 °F 61.4 °F 29.75 in North 9.2 mph 5.7 mph 91% 0 in 216.00 W/m2
14:54 64.2 °F 61.5 °F 29.76 in NNW 9.2 mph 5.4 mph 91% 0 in 202.00 W/m2
14:59 64.5 °F 61.8 °F 29.76 in North 7 mph 4.9 mph 91% 0 in 135.00 W/m2
15:04 64.6 °F 61.6 °F 29.76 in North 5.8 mph 3.2 mph 90% 0 in 111.00 W/m2
15:09 64.6 °F 61.6 °F 29.77 in NNW 9.2 mph 6 mph 90% 0 in 83.00 W/m2
15:14 64.6 °F 61.6 °F 29.77 in North 8.1 mph 7.2 mph 90% 0 in 63.00 W/m2
15:19 64.5 °F 61.8 °F 29.77 in NNW 10.4 mph 3.8 mph 91% 0 in 63.00 W/m2
15:24 64.3 °F 61.3 °F 29.77 in NW 7 mph 5.9 mph 90% 0 in 69.00 W/m2
15:29 64.1 °F 61.4 °F 29.77 in NW 7 mph 3.8 mph 91% 0 in 104.00 W/m2
15:34 64.1 °F 61.4 °F 29.77 in NNW 5.8 mph 2.7 mph 91% 0 in 137.00 W/m2
15:39 64.2 °F 61.5 °F 29.77 in NNW 7 mph 5.7 mph 91% 0 in 128.00 W/m2
15:44 64.2 °F 61.5 °F 29.77 in NW 6.9 mph 4.9 mph 91% 0 in 132.00 W/m2
15:49 64.2 °F 61.5 °F 29.77 in NNW 5.8 mph 2.8 mph 91% 0 in 69.00 W/m2
15:54 64.2 °F 61.5 °F 29.78 in NNW 5 mph 3.9 mph 91% 0 in 84.00 W/m2
15:59 64.3 °F 61.6 °F 29.77 in NW 5.8 mph 3 mph 91% 0 in 135.00 W/m2
16:04 64.3 °F 61.6 °F 29.77 in NNW 6.9 mph 5 mph 91% 0 in 95.00 W/m2
16:09 64.4 °F 61.7 °F 29.78 in NNW 8.1 mph 4.3 mph 91% 0 in 81.00 W/m2
16:14 64.4 °F 61.7 °F 29.78 in NNW 5.8 mph 4.3 mph 91% 0 in 95.00 W/m2
16:19 64.5 °F 61.8 °F 29.78 in North 8.1 mph 4.8 mph 91% 0 in 72.00 W/m2
16:24 64.5 °F 61.8 °F 29.78 in North 8 mph 6.1 mph 91% 0 in 165.00 W/m2
16:29 64.8 °F 62.1 °F 29.78 in NNW 7 mph 4.2 mph 91% 0 in 137.00 W/m2
16:34 64.7 °F 62 °F 29.78 in North 4.6 mph 3 mph 91% 0 in 70.00 W/m2
16:39 64.7 °F 62 °F 29.79 in North 5.8 mph 4 mph 91% 0 in 67.00 W/m2
16:44 64.7 °F 62 °F 29.79 in NNW 6.9 mph 4.7 mph 91% 0 in 98.00 W/m2
16:49 64.7 °F 62 °F 29.79 in NNW 3.5 mph 0.3 mph 91% 0 in 137.00 W/m2
16:54 64.9 °F 62.2 °F 29.79 in North 3.5 mph 2.2 mph 91% 0 in 148.00 W/m2
16:59 65.2 °F 62.5 °F 29.79 in NNW 3.5 mph 1.3 mph 91% 0 in 401.00 W/m2
17:04 66 °F 63.3 °F 29.79 in North 3.5 mph 1.7 mph 91% 0 in 401.00 W/m2
17:09 66.5 °F 63.2 °F 29.78 in NNW 5.8 mph 4.5 mph 89% 0 in 236.00 W/m2
17:14 66.9 °F 63.6 °F 29.79 in NNW 3.5 mph 3.1 mph 89% 0 in 297.00 W/m2
17:19 67.2 °F 63.5 °F 29.79 in North 2.3 mph 0.8 mph 88% 0 in 265.00 W/m2
17:24 67.3 °F 63.6 °F 29.78 in Calm     88% 0 in 183.00 W/m2
17:29 67.3 °F 63.6 °F 29.78 in Calm     88% 0 in 144.00 W/m2
17:34 67.4 °F 64 °F 29.78 in Calm     89% 0 in 172.00 W/m2
17:39 67.6 °F 63.9 °F 29.78 in Calm     88% 0 in 234.00 W/m2
17:44 68.1 °F 64.4 °F 29.78 in Calm     88% 0 in 406.00 W/m2
17:49 68.6 °F 64.6 °F 29.78 in NE 4.6 mph 0.4 mph 87% 0 in 392.00 W/m2
17:54 69 °F 64.6 °F 29.78 in Calm     86% 0 in 207.00 W/m2
17:59 69.1 °F 64.7 °F 29.79 in ENE 2.3 mph 1.3 mph 86% 0 in 329.00 W/m2
18:04 69.2 °F 64.8 °F 29.79 in Calm     86% 0 in 376.00 W/m2
18:09 69 °F 64 °F 29.79 in ENE 3.5 mph 2.8 mph 84% 0 in 174.00 W/m2
18:14 68.9 °F 64.2 °F 29.80 in Calm     85% 0 in 209.00 W/m2
18:19 68.8 °F 63.8 °F 29.80 in Calm     84% 0 in 121.00 W/m2
18:24 68.7 °F 63.7 °F 29.80 in Calm     84% 0 in 171.00 W/m2
18:29 68.7 °F 63.7 °F 29.80 in Calm     84% 0 in 262.00 W/m2
18:34 68.7 °F 63.3 °F 29.80 in Calm     83% 0 in 95.00 W/m2
18:39 68.5 °F 63.5 °F 29.81 in Calm     84% 0 in 107.00 W/m2
18:44 68.2 °F 63.2 °F 29.80 in Calm     84% 0 in 156.00 W/m2
18:49 68.1 °F 63.8 °F 29.80 in Calm     86% 0 in 267.00 W/m2
18:54 68.3 °F 63.9 °F 29.80 in Calm     86% 0 in 114.00 W/m2
18:59 68.3 °F 63.6 °F 29.80 in Calm     85% 0 in 193.00 W/m2
19:04 68.5 °F 64.1 °F 29.80 in Calm     86% 0 in 109.00 W/m2
19:09 68.5 °F 64.1 °F 29.81 in Calm     86% 0 in 128.00 W/m2
19:14 68.4 °F 63.4 °F 29.81 in Calm     84% 0 in 107.00 W/m2
19:19 68.4 °F 63.4 °F 29.82 in Calm     84% 0 in 102.00 W/m2
19:24 68.3 °F 63.3 °F 29.82 in Calm     84% 0 in 40.00 W/m2
19:29 68.2 °F 63.2 °F 29.82 in Calm     84% 0 in 46.00 W/m2
19:34 68.2 °F 63.2 °F 29.82 in Calm     84% 0 in 39.00 W/m2
19:39 68 °F 63 °F 29.82 in Calm     84% 0 in 33.00 W/m2
19:44 67.7 °F 63 °F 29.82 in Calm     85% 0 in 26.00 W/m2
19:49 67.5 °F 62.8 °F 29.82 in Calm     85% 0 in 19.00 W/m2
19:54 67.2 °F 62.9 °F 29.82 in Calm     86% 0 in 18.00 W/m2
19:59 66.7 °F 62.7 °F 29.83 in Calm     87% 0 in 12.00 W/m2
20:04 66.4 °F 62.4 °F 29.83 in Calm     87% 0 in 7.00 W/m2
20:09 66 °F 62 °F 29.83 in Calm     87% 0 in 5.00 W/m2
20:14 65.6 °F 61.6 °F 29.83 in Calm     87% 0 in 0.00 W/m2
20:19 65.1 °F 61.5 °F 29.84 in Calm     88% 0 in 0.00 W/m2
20:24 64.7 °F 61.4 °F 29.84 in Calm     89% 0 in 0.00 W/m2
20:29 64.5 °F 61.5 °F 29.84 in Calm     90% 0 in 0.00 W/m2
20:34 64.2 °F 61.2 °F 29.84 in Calm     90% 0 in 0.00 W/m2
20:39 63.9 °F 61.2 °F 29.85 in Calm     91% 0 in 0.00 W/m2
20:44 63.7 °F 61 °F 29.85 in Calm     91% 0 in 0.00 W/m2
20:49 63.6 °F 61.2 °F 29.85 in Calm     92% 0 in 0.00 W/m2
20:54 63.4 °F 61 °F 29.86 in Calm     92% 0 in 0.00 W/m2
20:59 63.1 °F 60.7 °F 29.86 in Calm     92% 0 in 0.00 W/m2
21:04 62.8 °F 60.4 °F 29.86 in Calm     92% 0 in 0.00 W/m2
21:09 62.2 °F 59.8 °F 29.86 in Calm     92% 0 in 0.00 W/m2
21:14 61.8 °F 59.5 °F 29.86 in Calm     92% 0 in 0.00 W/m2
21:19 61.4 °F 59.1 °F 29.86 in Calm     92% 0 in 0.00 W/m2
21:24 61.1 °F 58.8 °F 29.87 in Calm     92% 0 in 0.00 W/m2
21:29 60.8 °F 58.5 °F 29.87 in Calm     92% 0 in 0.00 W/m2
21:34 60.6 °F 58.3 °F 29.88 in Calm     92% 0 in 0.00 W/m2
21:39 60.3 °F 58 °F 29.87 in Calm     92% 0 in 0.00 W/m2
21:44 59.9 °F 57.6 °F 29.87 in Calm     92% 0 in 0.00 W/m2
21:49 59.6 °F 57.3 °F 29.87 in Calm     92% 0 in 0.00 W/m2
21:54 59.4 °F 57.4 °F 29.87 in Calm     93% 0 in 0.00 W/m2
21:59 59.1 °F 57.1 °F 29.87 in Calm     93% 0 in 0.00 W/m2
22:04 58.9 °F 56.9 °F 29.87 in Calm     93% 0 in 0.00 W/m2
22:09 58.7 °F 56.7 °F 29.88 in Calm     93% 0 in 0.00 W/m2
22:14 58.6 °F 56.9 °F 29.88 in Calm     94% 0 in 0.00 W/m2
22:19 58.4 °F 56.4 °F 29.88 in Calm     93% 0 in 0.00 W/m2
22:24 58.2 °F 56.5 °F 29.88 in Calm     94% 0 in 0.00 W/m2
22:29 58 °F 56.3 °F 29.88 in Calm     94% 0 in 0.00 W/m2
22:34 57.9 °F 56.2 °F 29.88 in Calm     94% 0 in 0.00 W/m2
22:39 58 °F 56.3 °F 29.89 in Calm     94% 0 in 0.00 W/m2
22:44 58.4 °F 56.7 °F 29.89 in Calm     94% 0 in 0.00 W/m2
22:49 58.4 °F 56.7 °F 29.89 in Calm     94% 0 in 0.00 W/m2
22:54 58.2 °F 56.5 °F 29.89 in Calm     94% 0 in 0.00 W/m2
22:59 57.8 °F 56.1 °F 29.88 in Calm     94% 0 in 0.00 W/m2
23:04 57.4 °F 55.7 °F 29.88 in Calm     94% 0 in 0.00 W/m2
23:09 57.1 °F 55.4 °F 29.88 in Calm     94% 0 in 0.00 W/m2
23:14 57 °F 55.3 °F 29.89 in Calm     94% 0 in 0.00 W/m2
23:19 57 °F 55.3 °F 29.89 in Calm     94% 0 in 0.00 W/m2
23:24 57.1 °F 55.7 °F 29.90 in Calm     95% 0 in 0.00 W/m2
23:29 57.4 °F 56 °F 29.91 in Calm     95% 0 in 0.00 W/m2
23:34 57.6 °F 56.2 °F 29.91 in Calm     95% 0 in 0.00 W/m2
23:39 57.7 °F 56.3 °F 29.91 in Calm     95% 0 in 0.00 W/m2
23:44 57.7 °F 56.3 °F 29.91 in Calm     95% 0 in 0.00 W/m2
23:49 57.6 °F 55.9 °F 29.91 in Calm     94% 0 in 0.00 W/m2
23:54 57.3 °F 55.6 °F 29.91 in Calm     94% 0 in 0.00 W/m2
23:59 57 °F 55.3 °F 29.91 in Calm     94% 0 in 0.00 W/m2
Bourbonnais, Illinois, USA
Compliments of Weather Underground - 4 mb